Time;durP1;ratioP1;P1;durP2;ratioP2;P2;SDS_P1;SDS_P2;PMS_P1;PMS_P2;Temp;Humidity;BMP_temperature;BMP_pressure;BME280_temperature;BME280_humidity;BME280_pressure;Samples;Min_cycle;Max_cycle;Signal;HPM_P1;HPM_P2
2021/03/21 00:01:39;;;;;;;13.83;8.30;;;;;;;-0.30;75.20;99110.31;1789215;80;21133;-62
2021/03/21 00:04:08;;;;;;;15.15;9.50;;;;;;;-0.37;75.45;99111.61;1789310;80;21291;-62
2021/03/21 00:06:37;;;;;;;16.60;8.70;;;;;;;-0.45;75.82;99107.78;1789370;80;21336;-60
2021/03/21 00:09:05;;;;;;;13.60;7.62;;;;;;;-0.53;76.30;99103.95;1789118;80;21275;-62
2021/03/21 00:11:34;;;;;;;14.70;8.60;;;;;;;-0.62;76.59;99104.28;1789139;80;21145;-62
2021/03/21 00:14:03;;;;;;;14.45;8.23;;;;;;;-0.71;76.87;99098.30;1789138;80;21141;-61
2021/03/21 00:16:34;;;;;;;11.83;7.17;;;;;;;-0.74;77.21;99099.77;1789302;79;21149;-62
2021/03/21 00:19:05;;;;;;;13.65;8.20;;;;;;;-0.81;77.37;99097.30;1789120;80;21106;-61
2021/03/21 00:21:34;;;;;;;13.25;8.30;;;;;;;-0.83;77.72;99095.06;1789125;80;21303;-62
2021/03/21 00:24:08;;;;;;;15.03;8.45;;;;;;;-0.85;77.79;99093.22;1789114;80;21161;-62
2021/03/21 00:26:36;;;;;;;13.95;7.97;;;;;;;-0.89;77.87;99093.05;1789436;80;21145;-61
2021/03/21 00:29:06;;;;;;;16.35;8.50;;;;;;;-0.90;78.08;99089.16;1789086;80;21271;-63
2021/03/21 00:31:35;;;;;;;13.72;8.08;;;;;;;-0.89;78.14;99083.28;1789093;80;21137;-62
2021/03/21 00:34:04;;;;;;;15.15;7.25;;;;;;;-0.88;78.30;99083.39;1789103;79;21153;-62
2021/03/21 00:36:32;;;;;;;12.30;7.85;;;;;;;-0.92;78.40;99076.78;1789192;79;21260;-62
2021/03/21 00:39:00;;;;;;;13.53;7.85;;;;;;;-0.98;78.58;99080.23;1789116;80;21275;-61
2021/03/21 00:41:28;;;;;;;18.20;8.48;;;;;;;-1.07;78.84;99081.83;1789434;80;21276;-63
2021/03/21 00:43:57;;;;;;;17.35;8.58;;;;;;;-1.06;79.04;99075.12;1789099;80;21145;-62
2021/03/21 00:46:26;;;;;;;11.93;7.90;;;;;;;-1.05;79.10;99088.26;1789126;80;21283;-61
2021/03/21 00:48:54;;;;;;;12.70;8.33;;;;;;;-1.03;79.15;99085.03;1789252;80;21302;-62
2021/03/21 00:51:23;;;;;;;15.23;8.65;;;;;;;-1.01;79.21;99079.67;1789201;80;21117;-61
2021/03/21 00:53:51;;;;;;;15.70;8.58;;;;;;;-1.00;79.20;99078.87;1789082;80;21164;-61
2021/03/21 00:56:39;;;;;;;13.80;7.95;;;;;;;-0.98;79.21;99078.97;1789561;79;21102;-63
2021/03/21 00:59:08;;;;;;;16.32;8.75;;;;;;;-1.01;79.36;99073.73;1789254;80;21278;-61
2021/03/21 01:01:37;;;;;;;15.03;8.43;;;;;;;-1.08;79.47;99078.82;1789533;80;21536;-61
2021/03/21 01:04:05;;;;;;;14.03;7.80;;;;;;;-1.15;79.67;99076.31;1789541;80;21291;-61
2021/03/21 01:06:34;;;;;;;15.30;8.18;;;;;;;-1.16;79.87;99082.17;1789572;80;21161;-59
2021/03/21 01:09:07;;;;;;;17.85;9.10;;;;;;;-1.19;79.95;99078.60;1789217;79;21141;-60
2021/03/21 01:11:38;;;;;;;13.30;7.55;;;;;;;-1.26;80.20;99077.35;1789322;80;21200;-59
2021/03/21 01:14:07;;;;;;;15.45;8.40;;;;;;;-1.34;80.52;99071.84;1789247;79;21212;-59
2021/03/21 01:16:39;;;;;;;13.95;8.35;;;;;;;-1.36;80.75;99077.59;1789253;80;21307;-60
2021/03/21 01:19:15;;;;;;;14.53;7.55;;;;;;;-1.38;80.88;99070.29;1789252;79;21141;-59
2021/03/21 01:21:44;;;;;;;14.23;7.65;;;;;;;-1.42;81.06;99067.98;1789453;80;21698;-60
2021/03/21 01:24:21;;;;;;;13.90;7.85;;;;;;;-1.46;81.19;99065.17;1789272;80;21169;-61
2021/03/21 01:26:49;;;;;;;16.87;8.78;;;;;;;-1.46;81.47;99060.11;1789470;79;21259;-61
2021/03/21 01:29:18;;;;;;;14.50;8.13;;;;;;;-1.49;81.47;99058.27;1789389;79;21547;-62
2021/03/21 01:31:46;;;;;;;15.95;8.83;;;;;;;-1.47;81.60;99060.91;1789257;79;21141;-60
2021/03/21 01:34:15;;;;;;;15.90;8.68;;;;;;;-1.47;81.60;99057.11;1789530;80;21556;-60
2021/03/21 01:36:43;;;;;;;13.00;7.85;;;;;;;-1.49;81.64;99063.33;1789267;80;21137;-60
2021/03/21 01:39:24;;;;;;;16.62;8.78;;;;;;;-1.50;81.73;99070.81;1789413;80;21292;-62
2021/03/21 01:42:06;;;;;;;19.03;8.53;;;;;;;-1.51;81.87;99056.42;1789640;79;21311;-59
2021/03/21 01:44:34;;;;;;;17.85;9.28;;;;;;;-1.54;81.92;99057.98;1789357;80;21142;-61
2021/03/21 01:47:22;;;;;;;14.03;8.48;;;;;;;-1.51;81.99;99058.56;1758499;80;21308;-61
2021/03/21 01:49:51;;;;;;;12.80;7.20;;;;;;;-1.54;81.90;99056.72;1755140;80;21106;-62
2021/03/21 01:52:36;;;;;;;14.83;7.35;;;;;;;-1.54;82.01;99046.59;1789170;80;21316;-61
2021/03/21 01:55:09;;;;;;;14.28;7.62;;;;;;;-1.56;82.03;99052.35;1788529;79;21110;-62
2021/03/21 01:57:37;;;;;;;14.73;7.58;;;;;;;-1.59;82.21;99042.92;1789183;79;21263;-63
2021/03/21 02:00:09;;;;;;;16.77;8.40;;;;;;;-1.61;82.14;99050.80;1789525;79;21102;-61
2021/03/21 02:02:37;;;;;;;;;;;;;;;-1.62;82.23;99044.01;1792146;80;21548;-61
2021/03/21 02:05:08;;;;;;;15.40;7.78;;;;;;;-1.62;82.31;99040.21;1789443;80;20498;-62
2021/03/21 02:07:50;;;;;;;14.45;7.50;;;;;;;-1.60;82.29;99033.59;1789448;79;21149;-62
2021/03/21 02:10:42;;;;;;;13.55;7.87;;;;;;;-1.58;82.27;99033.30;1789439;80;21137;-63
2021/03/21 02:13:29;;;;;;;15.40;7.75;;;;;;;-1.54;82.23;99033.08;1789200;80;21133;-64
2021/03/21 02:16:07;;;;;;;12.45;8.05;;;;;;;-1.57;82.16;99032.50;1789206;80;21113;-63
2021/03/21 02:18:50;;;;;;;19.62;7.97;;;;;;;-1.59;82.18;99027.73;1789193;79;21280;-62
2021/03/21 02:21:42;;;;;;;12.45;6.87;;;;;;;-1.62;82.29;99019.97;1789020;79;21169;-63
2021/03/21 02:24:30;;;;;;;17.70;8.80;;;;;;;-1.65;82.41;99020.20;1789634;80;21161;-61
2021/03/21 02:27:06;;;;;;;14.20;7.90;;;;;;;-1.65;82.46;99018.53;1789191;80;21148;-60
2021/03/21 02:29:56;;;;;;;14.95;8.13;;;;;;;-1.67;82.44;99019.22;1788800;80;21259;-62
2021/03/21 02:32:33;;;;;;;11.40;7.28;;;;;;;-1.64;82.46;99021.93;1789207;79;21137;-61
2021/03/21 02:35:15;;;;;;;15.00;7.97;;;;;;;-1.59;82.41;99016.75;1787649;80;21141;-61
2021/03/21 02:38:11;;;;;;;16.75;8.73;;;;;;;-1.60;82.27;99017.15;1788772;79;21149;-60
2021/03/21 02:41:00;;;;;;;14.23;7.53;;;;;;;-1.57;82.27;99011.39;1789389;79;21125;-60
2021/03/21 02:43:43;;;;;;;14.25;8.23;;;;;;;-1.60;82.16;99012.09;1789145;80;21125;-62
2021/03/21 02:46:25;;;;;;;13.50;7.60;;;;;;;-1.57;82.10;99018.98;1789442;79;21166;-60
2021/03/21 02:49:01;;;;;;;14.18;8.23;;;;;;;-1.59;81.98;99011.29;1789151;80;21102;-63
2021/03/21 02:51:36;;;;;;;13.95;8.25;;;;;;;-1.57;82.04;99008.87;1787275;80;21149;-62
2021/03/21 02:54:13;;;;;;;13.30;7.85;;;;;;;-1.58;81.87;99009.63;1781104;79;21285;-62
2021/03/21 02:56:47;;;;;;;13.62;7.62;;;;;;;-1.61;81.92;99000.20;1780804;80;21102;-60
2021/03/21 02:59:20;;;;;;;13.22;7.90;;;;;;;-1.61;81.86;99009.05;1781160;80;21130;-61
2021/03/21 03:01:54;;;;;;;16.23;8.18;;;;;;;-1.63;81.94;99001.79;1780878;80;21349;-61
2021/03/21 03:04:30;;;;;;;13.80;8.20;;;;;;;-1.61;81.88;99001.47;1781062;80;21150;-61
2021/03/21 03:07:24;;;;;;;14.07;8.10;;;;;;;-1.60;81.83;98998.17;1780848;80;21121;-60
2021/03/21 03:09:57;;;;;;;12.58;7.75;;;;;;;-1.60;81.77;98996.04;1781072;80;21272;-59
2021/03/21 03:12:37;;;;;;;14.60;8.35;;;;;;;-1.58;81.75;98995.34;1780873;80;21134;-60
2021/03/21 03:15:13;;;;;;;13.43;8.03;;;;;;;-1.60;81.64;98994.77;1781226;79;21540;-60
2021/03/21 03:17:44;;;;;;;14.83;7.75;;;;;;;-1.63;81.65;99000.52;1781176;80;21129;-59
2021/03/21 03:20:33;;;;;;;16.07;8.50;;;;;;;-1.63;81.63;98994.20;1780997;80;21346;-60
2021/03/21 03:23:29;;;;;;;16.23;9.25;;;;;;;-1.63;81.53;98999.27;1781105;80;21298;-60
2021/03/21 03:26:12;;;;;;;16.50;8.63;;;;;;;-1.65;81.48;98995.76;1781193;80;21726;-61
2021/03/21 03:28:52;;;;;;;19.02;8.88;;;;;;;-1.63;81.15;98991.67;1780945;80;21114;-61
2021/03/21 03:31:37;;;;;;;14.73;8.90;;;;;;;-1.63;81.15;98991.67;1781208;80;21157;-61
2021/03/21 03:34:06;;;;;;;15.20;8.65;;;;;;;-1.63;81.33;98995.47;1780203;80;21126;-61
2021/03/21 03:36:34;;;;;;;16.82;8.88;;;;;;;-1.62;81.29;98988.34;1780827;80;21315;-61
2021/03/21 03:39:03;;;;;;;14.98;9.33;;;;;;;-1.61;81.25;98990.08;1781206;80;21272;-62
2021/03/21 03:42:10;;;;;;;14.65;8.78;;;;;;;-1.58;81.19;98980.53;1780871;79;21153;-61
2021/03/21 03:44:55;;;;;;;16.87;9.25;;;;;;;-1.54;81.11;98985.87;1781131;80;21164;-59
2021/03/21 03:47:32;;;;;;;16.80;9.83;;;;;;;-1.54;81.00;98984.60;1781051;80;21224;-60
2021/03/21 03:50:05;;;;;;;13.62;8.95;;;;;;;-1.54;80.99;98974.88;1780107;80;21592;-62
2021/03/21 03:53:12;;;;;;;14.23;8.50;;;;;;;-1.54;80.91;98973.22;1785233;79;21275;-61
2021/03/21 03:56:15;;;;;;;13.95;8.35;;;;;;;-1.53;80.87;98981.67;1789422;79;21101;-61
2021/03/21 03:59:10;;;;;;;16.97;8.50;;;;;;;-1.54;80.87;98979.54;1789440;79;21129;-61
2021/03/21 04:02:05;;;;;;;16.02;9.45;;;;;;;-1.53;80.84;98975.34;1788983;80;21129;-59
2021/03/21 04:05:23;;;;;;;15.93;9.43;;;;;;;-1.49;80.86;98976.41;1789102;80;21252;-60
2021/03/21 04:08:22;;;;;;;17.62;9.43;;;;;;;-1.49;80.72;98978.55;1787412;79;21110;-58
2021/03/21 04:11:07;;;;;;;17.30;9.70;;;;;;;-1.48;80.65;98978.15;1770483;80;21109;-60
2021/03/21 04:13:44;;;;;;;21.62;10.40;;;;;;;-1.49;80.62;98971.36;1788696;79;21133;-61
2021/03/21 04:16:17;;;;;;;18.73;9.20;;;;;;;-1.51;80.56;98975.45;1789422;80;21138;-59
2021/03/21 04:19:10;;;;;;;16.55;9.48;;;;;;;-1.52;80.63;98973.72;1789106;80;21145;-61
2021/03/21 04:21:50;;;;;;;16.27;10.08;;;;;;;-1.49;80.58;98976.02;1789342;79;21556;-62
2021/03/21 04:24:41;;;;;;;22.22;12.75;;;;;;;-1.45;80.56;98971.63;1815349;78;21132;-63
2021/03/21 04:27:17;;;;;;;24.90;14.00;;;;;;;-1.41;80.36;98975.20;1821230;79;21114;-63
2021/03/21 04:30:12;;;;;;;24.30;13.50;;;;;;;-1.38;80.26;98974.11;1821173;77;21523;-61
2021/03/21 04:32:48;;;;;;;24.72;13.53;;;;;;;-1.31;80.24;98969.88;1820608;78;21225;-61
2021/03/21 04:35:25;;;;;;;27.17;12.80;;;;;;;-1.21;80.07;98974.69;1821266;77;21247;-63
2021/03/21 04:38:01;;;;;;;20.35;12.07;;;;;;;-1.07;79.97;98972.93;1821372;79;21171;-61
2021/03/21 04:40:30;;;;;;;21.93;13.25;;;;;;;-0.26;79.91;98969.80;1819016;79;21547;-63
2021/03/21 04:43:23;;;;;;;23.15;13.58;;;;;;;0.97;77.92;98966.34;1818187;79;21116;-61
2021/03/21 04:45:55;;;;;;;25.43;14.00;;;;;;;2.19;75.36;98964.80;1798856;79;21167;-63
2021/03/21 04:48:25;;;;;;;21.97;13.62;;;;;;;3.60;71.18;98963.36;1821375;79;21321;-61
2021/03/21 04:51:04;;;;;;;17.02;11.75;;;;;;;4.59;67.60;98966.53;1821403;79;21159;-62
2021/03/21 04:53:46;;;;;;;20.60;12.43;;;;;;;5.38;64.73;98967.88;1821278;79;21286;-63
2021/03/21 04:56:25;;;;;;;18.07;10.90;;;;;;;6.29;61.57;98968.92;1794072;79;21324;-61
2021/03/21 04:59:03;;;;;;;20.60;10.80;;;;;;;7.27;58.26;98964.59;1789417;80;21116;-61
2021/03/21 05:01:37;;;;;;;17.85;11.18;;;;;;;8.10;55.41;98959.62;1788308;80;21261;-61
2021/03/21 05:04:13;;;;;;;18.52;10.88;;;;;;;8.87;52.04;98969.69;1789315;80;21167;-61
2021/03/21 05:06:52;;;;;;;16.27;10.70;;;;;;;9.48;50.28;98976.71;1788756;80;21152;-63
2021/03/21 05:09:29;;;;;;;14.55;9.73;;;;;;;10.19;47.99;98979.43;1789417;80;21151;-64
2021/03/21 05:12:15;;;;;;;15.35;10.35;;;;;;;10.96;45.93;98982.03;1789226;80;21148;-63
2021/03/21 05:15:20;;;;;;;16.77;10.75;;;;;;;11.37;44.40;98979.84;1749128;82;21122;-63
2021/03/21 05:18:23;;;;;;;17.07;10.03;;;;;;;12.00;43.14;98981.56;1789284;80;21143;-62
2021/03/21 05:21:08;;;;;;;15.65;10.38;;;;;;;12.46;41.67;98993.41;1808661;79;21142;-66
2021/03/21 05:24:03;;;;;;;15.08;10.55;;;;;;;12.65;40.76;98990.48;1816835;79;21119;-62
2021/03/21 05:26:46;;;;;;;15.68;10.10;;;;;;;13.28;38.71;98991.03;1820424;78;21260;-62
2021/03/21 05:29:48;;;;;;;13.78;9.23;;;;;;;13.51;38.77;98993.63;1816646;78;21263;-62
2021/03/21 05:32:19;;;;;;;14.03;9.68;;;;;;;14.33;37.53;98993.91;1798555;79;21304;-64
2021/03/21 05:34:49;;;;;;;15.50;9.63;;;;;;;14.92;35.68;98990.61;1739020;82;21142;-65
2021/03/21 05:37:51;;;;;;;14.40;8.98;;;;;;;13.92;35.25;98984.52;1813621;79;21163;-64
2021/03/21 05:40:36;;;;;;;14.15;9.88;;;;;;;12.42;37.37;98984.37;1813113;79;21570;-64
2021/03/21 05:43:45;;;;;;;15.45;10.32;;;;;;;10.99;39.27;98982.05;1808265;79;21285;-63
2021/03/21 05:46:36;;;;;;;15.00;10.30;;;;;;;10.01;40.87;98985.64;1813396;79;21139;-61
2021/03/21 05:49:31;;;;;;;;;;;;;;;9.15;42.50;98984.33;1715576;80;21169;-64
2021/03/21 05:52:10;;;;;;;15.88;11.08;;;;;;;8.02;44.47;98985.16;1721424;82;20157;-62
2021/03/21 05:55:28;;;;;;;19.30;12.53;;;;;;;7.29;46.22;98982.19;1802648;79;21184;-64
2021/03/21 05:58:33;;;;;;;21.15;13.13;;;;;;;6.72;47.54;98984.61;1801442;79;21322;-66
2021/03/21 06:01:38;;;;;;;19.07;12.35;;;;;;;6.26;48.50;98974.38;1713589;83;21589;-59
2021/03/21 06:04:15;;;;;;;18.87;12.78;;;;;;;5.92;49.51;98971.21;1750364;79;21756;-59
2021/03/21 06:07:08;;;;;;;20.08;13.72;;;;;;;5.70;50.00;98961.62;1794873;79;21119;-64
2021/03/21 06:09:59;;;;;;;20.45;12.95;;;;;;;5.52;50.34;98964.87;1714193;82;21289;-62
2021/03/21 06:12:47;;;;;;;20.72;12.40;;;;;;;5.24;51.03;98965.31;1795516;80;21273;-63
2021/03/21 06:16:03;;;;;;;23.98;14.03;;;;;;;4.96;51.47;98960.58;1728327;83;21155;-66
2021/03/21 06:19:05;;;;;;;20.48;13.80;;;;;;;4.70;52.30;98958.81;1795419;79;21128;-62
2021/03/21 06:21:56;;;;;;;;;;;;;;;4.32;52.64;98951.96;1717498;83;21149;-68
2021/03/21 06:24:42;;;;;;;23.10;15.18;;;;;;;4.11;53.59;98949.52;1736326;82;20217;-67
2021/03/21 06:27:41;;;;;;;21.93;15.08;;;;;;;4.05;54.13;98951.45;1736349;83;21139;-64
2021/03/21 06:30:45;;;;;;;23.42;14.15;;;;;;;3.91;54.38;98948.37;1715109;84;21286;-65
2021/03/21 06:33:39;;;;;;;22.75;15.83;;;;;;;3.67;54.93;98947.06;1795536;80;21293;-64
2021/03/21 06:36:21;;;;;;;23.98;15.45;;;;;;;3.50;55.70;98936.61;1804076;79;21144;-73
2021/03/21 06:39:12;;;;;;;25.50;16.32;;;;;;;3.28;56.06;98931.07;1812657;79;21144;-66
2021/03/21 06:41:57;;;;;;;25.35;15.75;;;;;;;3.05;56.59;98927.61;1780758;80;21544;-69
2021/03/21 06:45:04;;;;;;;26.90;16.93;;;;;;;2.94;57.47;98926.33;1785551;79;21283;-69
2021/03/21 06:47:46;;;;;;;27.00;18.15;;;;;;;3.00;57.65;98926.56;1812724;79;21155;-65
2021/03/21 06:50:41;;;;;;;29.02;19.98;;;;;;;3.12;57.65;98923.64;1792241;79;21351;-66
2021/03/21 06:53:40;;;;;;;31.10;19.62;;;;;;;3.14;57.40;98915.66;1812312;78;21123;-66
2021/03/21 06:56:54;;;;;;;29.12;18.23;;;;;;;3.17;57.42;98921.73;1809830;79;21157;-66
2021/03/21 07:03:27;;;;;;;29.05;17.92;;;;;;;4.42;56.01;98900.37;1855853;76;22124;-66
2021/03/21 07:06:31;;;;;;;33.10;18.75;;;;;;;4.95;55.27;98905.12;1790766;79;21122;-67
2021/03/21 07:09:10;;;;;;;26.60;17.73;;;;;;;5.69;53.57;98897.56;1785962;79;21268;-68
2021/03/21 07:12:13;;;;;;;27.42;17.40;;;;;;;6.84;51.49;98890.42;1785294;79;21284;-63
2021/03/21 07:15:27;;;;;;;27.90;18.17;;;;;;;7.14;50.67;98897.57;1791245;79;21170;-67
2021/03/21 07:18:05;;;;;;;27.02;18.15;;;;;;;9.56;46.92;98892.67;1777053;81;21561;-68
2021/03/21 07:20:58;;;;;;;26.02;17.42;;;;;;;9.84;43.78;98896.91;1777087;79;21149;-65
2021/03/21 07:23:47;;;;;;;25.97;17.37;;;;;;;9.15;43.69;98883.06;1747313;81;21203;-66
2021/03/21 07:26:39;;;;;;;25.52;18.23;;;;;;;9.48;42.87;98886.13;1777192;79;21177;-68
2021/03/21 07:29:38;;;;;;;25.55;17.87;;;;;;;8.90;43.25;98878.41;1776900;79;21122;-66
2021/03/21 07:32:51;;;;;;;27.93;19.40;;;;;;;7.95;44.65;98868.08;1776655;79;21106;-67
2021/03/21 07:36:05;;;;;;;25.17;17.48;;;;;;;8.68;44.42;98870.75;1742076;81;21158;-66
2021/03/21 07:38:58;;;;;;;25.80;17.27;;;;;;;9.69;41.77;98872.69;1729941;81;21545;-67
2021/03/21 07:41:34;;;;;;;26.10;16.82;;;;;;;10.32;40.36;98866.98;1744442;81;21196;-67
2021/03/21 07:44:24;;;;;;;24.72;17.07;;;;;;;10.58;39.57;98865.09;1743542;82;21152;-67
2021/03/21 07:47:16;;;;;;;21.90;15.93;;;;;;;11.54;37.61;98858.91;1743242;81;21237;-65
2021/03/21 07:50:09;;;;;;;;;;;;;;;12.36;35.49;98847.63;1733588;81;21168;-67
2021/03/21 07:52:45;;;;;;;21.10;14.80;;;;;;;12.93;33.90;98850.68;1735780;81;20146;-67
2021/03/21 07:55:27;;;;;;;21.45;15.50;;;;;;;12.98;33.75;98851.54;1734408;81;21293;-67
2021/03/21 07:58:10;;;;;;;20.77;15.30;;;;;;;12.86;33.06;98846.36;1730999;81;21194;-70
2021/03/21 08:00:40;;;;;;;20.62;15.48;;;;;;;11.89;33.37;98835.41;1736545;82;21371;-69
2021/03/21 08:03:26;;;;;;;23.67;14.73;;;;;;;12.20;34.23;98834.20;1730250;82;21190;-66
2021/03/21 08:05:57;;;;;;;22.35;15.80;;;;;;;12.61;32.86;98829.52;1723742;82;21182;-68
2021/03/21 08:08:30;;;;;;;20.95;14.98;;;;;;;12.12;32.68;98820.39;1735483;82;21151;-66
2021/03/21 08:11:02;;;;;;;19.67;14.43;;;;;;;11.78;33.97;98824.55;1738950;82;21312;-70
2021/03/21 08:13:44;;;;;;;18.25;13.83;;;;;;;11.57;33.91;98826.18;1741886;81;21299;-68
2021/03/21 08:16:21;;;;;;;19.75;13.60;;;;;;;11.64;33.08;98820.63;1742697;82;21179;-66
2021/03/21 08:18:50;;;;;;;18.37;13.58;;;;;;;11.69;33.27;98802.98;1742592;81;21311;-67
2021/03/21 08:21:31;;;;;;;22.85;14.65;;;;;;;12.25;32.39;98801.44;1742657;81;21162;-66
2021/03/21 08:24:16;;;;;;;21.53;14.90;;;;;;;12.70;31.99;98791.98;1743014;81;21133;-65
2021/03/21 08:26:45;;;;;;;18.45;14.05;;;;;;;12.70;31.99;98791.98;1742252;81;21824;-66
2021/03/21 08:29:24;;;;;;;20.43;14.45;;;;;;;12.91;31.35;98786.36;1742679;81;21299;-70
2021/03/21 08:32:10;;;;;;;18.62;15.08;;;;;;;13.22;30.76;98778.08;1746632;81;21305;-71
2021/03/21 08:34:44;;;;;;;22.30;16.23;;;;;;;13.46;30.69;98788.86;1742456;81;21161;-65
2021/03/21 08:37:27;;;;;;;19.77;14.58;;;;;;;13.60;29.97;98777.98;1737692;82;21684;-64
2021/03/21 08:40:18;;;;;;;19.57;14.85;;;;;;;13.62;28.98;98783.17;1740312;81;21182;-65
2021/03/21 08:42:53;;;;;;;21.70;16.17;;;;;;;13.47;29.72;98758.16;1740435;82;21280;-61
2021/03/21 08:45:44;;;;;;;22.82;16.77;;;;;;;13.02;30.44;98769.91;1740246;82;21126;-63
2021/03/21 08:48:20;;;;;;;18.73;14.60;;;;;;;12.50;31.45;98763.94;1740157;82;21162;-63
2021/03/21 08:50:53;;;;;;;20.25;15.40;;;;;;;12.35;31.82;98763.06;1740281;81;21339;-63
2021/03/21 08:53:44;;;;;;;16.15;12.43;;;;;;;12.52;31.37;98760.49;1739794;82;21146;-64
2021/03/21 08:56:29;;;;;;;19.02;12.68;;;;;;;12.47;31.07;98750.58;1741102;81;21162;-64
2021/03/21 08:59:36;;;;;;;18.27;12.37;;;;;;;11.85;31.62;98753.47;1740180;82;21166;-64
2021/03/21 09:02:15;;;;;;;16.20;12.00;;;;;;;11.35;32.03;98732.22;1732831;81;21151;-64
2021/03/21 09:05:03;;;;;;;18.17;12.50;;;;;;;11.11;32.60;98748.45;1763506;81;21182;-60
2021/03/21 09:07:35;;;;;;;20.02;12.85;;;;;;;10.91;32.47;98722.52;1771240;81;21232;-62
2021/03/21 09:10:21;;;;;;;16.73;12.40;;;;;;;10.42;33.09;98715.75;1770884;81;21300;-62
2021/03/21 09:12:55;;;;;;;17.73;12.68;;;;;;;10.09;33.57;98715.88;1771097;80;21384;-60
2021/03/21 09:15:37;;;;;;;20.08;12.63;;;;;;;9.76;33.99;98722.43;1771026;80;21114;-60
2021/03/21 09:18:23;;;;;;;20.15;13.60;;;;;;;9.52;34.79;98727.34;1771177;81;21142;-61
2021/03/21 09:21:23;;;;;;;19.20;12.68;;;;;;;9.53;34.65;98727.34;1769904;81;21297;-61
2021/03/21 09:23:57;;;;;;;17.48;11.43;;;;;;;9.26;34.27;98733.05;1771315;80;21138;-62
2021/03/21 09:26:39;;;;;;;24.18;12.28;;;;;;;8.48;34.24;98717.80;1767902;81;21145;-60
2021/03/21 09:29:32;;;;;;;20.43;12.65;;;;;;;7.88;35.45;98702.64;1764213;81;21541;-61
2021/03/21 09:32:21;;;;;;;18.57;11.40;;;;;;;7.40;36.40;98720.16;1732263;81;21252;-61
2021/03/21 09:35:13;;;;;;;18.02;11.35;;;;;;;6.99;37.12;98696.23;1757205;81;21167;-61
2021/03/21 09:37:41;;;;;;;27.05;12.40;;;;;;;6.70;38.22;98695.20;1760436;81;21144;-61
2021/03/21 09:40:31;;;;;;;18.57;12.23;;;;;;;6.44;38.32;98695.91;1764855;81;21296;-62
2021/03/21 09:42:59;;;;;;;16.02;10.95;;;;;;;6.19;38.66;98680.38;1763991;81;21138;-60
2021/03/21 09:45:27;;;;;;;16.45;11.18;;;;;;;5.80;38.85;98684.52;1761643;81;21118;-60
2021/03/21 09:48:04;;;;;;;19.77;12.80;;;;;;;5.44;39.54;98671.23;1761341;81;21179;-61
2021/03/21 09:50:53;;;;;;;16.10;10.90;;;;;;;5.08;40.12;98656.14;1761173;81;21132;-61
2021/03/21 09:53:46;;;;;;;17.67;11.88;;;;;;;4.83;40.83;98671.20;1759403;81;21098;-60
2021/03/21 09:56:52;;;;;;;19.32;12.35;;;;;;;4.82;41.83;98669.06;1759931;81;21220;-60
2021/03/21 09:59:56;;;;;;;19.62;12.15;;;;;;;4.81;41.52;98654.56;1748011;80;21137;-59
2021/03/21 10:02:50;;;;;;;17.52;11.00;;;;;;;4.72;41.43;98665.36;1757362;81;21173;-61
2021/03/21 10:05:49;;;;;;;17.32;10.50;;;;;;;4.70;41.24;98627.80;1759426;81;21343;-61
2021/03/21 10:08:56;;;;;;;20.43;11.18;;;;;;;4.68;40.97;98653.34;1761447;81;21118;-62
2021/03/21 10:11:35;;;;;;;17.12;10.40;;;;;;;4.70;41.48;98644.00;1754078;81;21279;-60
2021/03/21 10:14:30;;;;;;;18.87;11.33;;;;;;;4.77;41.55;98645.05;1761277;81;21098;-62
2021/03/21 10:17:22;;;;;;;18.73;11.60;;;;;;;4.82;40.90;98640.94;1761882;81;21146;-59
2021/03/21 10:19:54;;;;;;;17.17;10.95;;;;;;;4.76;41.13;98626.72;1778815;81;21134;-62
2021/03/21 10:22:33;;;;;;;15.50;10.75;;;;;;;4.68;41.33;98638.00;1778722;80;21553;-60
2021/03/21 10:25:13;;;;;;;14.90;10.18;;;;;;;4.63;41.50;98654.00;1778765;81;21307;-62
2021/03/21 10:27:50;;;;;;;16.90;10.48;;;;;;;4.58;41.47;98628.33;1777186;81;21374;-62
2021/03/21 10:30:26;;;;;;;19.50;10.78;;;;;;;4.60;42.25;98603.66;1763441;81;21302;-62
2021/03/21 10:33:06;;;;;;;16.15;11.30;;;;;;;4.73;42.10;98613.83;1763986;81;21647;-62
2021/03/21 10:35:45;;;;;;;17.98;10.70;;;;;;;4.89;41.62;98604.92;1763817;81;21315;-56
2021/03/21 10:38:47;;;;;;;15.90;10.43;;;;;;;4.90;41.47;98577.23;1764047;81;21118;-61
2021/03/21 10:41:59;;;;;;;16.67;9.90;;;;;;;4.91;41.67;98593.91;1760572;81;21129;-62
2021/03/21 10:44:38;;;;;;;14.58;9.95;;;;;;;4.91;41.31;98587.52;1740737;81;21172;-60
2021/03/21 10:47:27;;;;;;;18.95;10.65;;;;;;;4.85;41.70;98582.22;1735310;81;21175;-60
2021/03/21 10:50:01;;;;;;;15.98;10.40;;;;;;;4.90;42.05;98562.75;1740741;82;21617;-59
2021/03/21 10:52:38;;;;;;;16.35;10.13;;;;;;;5.03;41.96;98578.43;1740686;82;21159;-62
2021/03/21 10:55:20;;;;;;;16.93;10.82;;;;;;;5.02;41.87;98581.83;1740789;82;21151;-62
2021/03/21 10:57:50;;;;;;;17.30;10.95;;;;;;;5.06;42.00;98581.06;1740500;81;21313;-60
2021/03/21 11:00:31;;;;;;;17.87;10.05;;;;;;;5.03;41.91;98578.02;1740408;81;21188;-61
2021/03/21 11:03:11;;;;;;;15.48;9.83;;;;;;;4.97;42.44;98596.63;1758532;81;21130;-63
2021/03/21 11:05:47;;;;;;;16.27;10.03;;;;;;;4.99;42.76;98587.31;1764444;80;21125;-62
2021/03/21 11:08:33;;;;;;;17.00;10.32;;;;;;;5.10;42.27;98584.17;1770463;80;21268;-61
2021/03/21 11:11:22;;;;;;;19.52;11.05;;;;;;;5.18;42.42;98573.30;1764893;80;21176;-63
2021/03/21 11:13:52;;;;;;;20.52;11.28;;;;;;;5.35;42.30;98550.71;1766084;80;21315;-60
2021/03/21 11:16:24;;;;;;;18.15;10.63;;;;;;;5.36;42.69;98565.23;1772776;80;21177;-61
2021/03/21 11:19:04;;;;;;;20.95;12.00;;;;;;;5.21;43.10;98537.98;1760701;80;21674;-61
2021/03/21 11:21:38;;;;;;;26.20;12.55;;;;;;;5.22;43.47;98548.27;1769447;80;21137;-61
2021/03/21 11:24:35;;;;;;;24.67;14.23;;;;;;;5.54;43.26;98538.36;1767001;80;21572;-61
2021/03/21 11:27:09;;;;;;;21.62;12.18;;;;;;;5.77;42.59;98529.94;1772678;80;21121;-60
2021/03/21 11:29:41;;;;;;;21.37;11.73;;;;;;;5.82;42.13;98515.55;1772317;80;21117;-61
2021/03/21 11:32:26;;;;;;;22.15;11.85;;;;;;;5.75;42.44;98531.20;1764828;80;21294;-60
2021/03/21 11:35:16;;;;;;;22.40;12.37;;;;;;;5.71;42.65;98524.27;1767925;80;21134;-60
2021/03/21 11:37:45;;;;;;;19.52;11.20;;;;;;;5.83;42.15;98519.44;1766127;80;21275;-60
2021/03/21 11:40:35;;;;;;;22.77;10.60;;;;;;;5.79;41.58;98508.66;1771272;80;21131;-61
2021/03/21 11:43:27;;;;;;;17.80;10.63;;;;;;;5.70;42.05;98490.55;1742572;80;21125;-60
2021/03/21 11:46:11;;;;;;;14.05;10.40;;;;;;;5.52;42.57;98501.23;1766038;80;21129;-60
2021/03/21 11:48:41;;;;;;;15.72;10.30;;;;;;;5.36;42.87;98502.54;1770297;80;21082;-61
2021/03/21 11:51:11;;;;;;;15.25;9.73;;;;;;;5.44;42.47;98504.89;1772972;80;21136;-61
2021/03/21 11:53:39;;;;;;;15.45;9.78;;;;;;;5.52;41.69;98500.34;1764528;80;21109;-61
2021/03/21 11:56:31;;;;;;;16.52;10.72;;;;;;;5.68;41.68;98491.34;1771152;80;21141;-60
2021/03/21 11:59:19;;;;;;;18.30;11.63;;;;;;;5.76;41.74;98474.03;1765872;80;21133;-60
2021/03/21 12:01:50;;;;;;;16.95;10.82;;;;;;;5.74;41.71;98482.09;1768452;80;21175;-59
2021/03/21 12:04:24;;;;;;;18.97;11.23;;;;;;;5.75;41.68;98494.47;1767445;80;21564;-60
2021/03/21 12:07:02;;;;;;;16.97;10.05;;;;;;;5.91;41.48;98468.81;1853169;76;22588;-60
2021/03/21 12:09:36;;;;;;;17.85;11.38;;;;;;;5.86;41.30;98458.04;1812458;78;21264;-60
2021/03/21 12:12:26;;;;;;;20.25;12.05;;;;;;;5.90;41.77;98460.66;1812833;78;21150;-61
2021/03/21 12:14:56;;;;;;;18.37;11.75;;;;;;;6.01;41.77;98470.77;1767934;80;21326;-61
2021/03/21 12:17:29;;;;;;;18.32;11.57;;;;;;;6.10;41.44;98444.04;1757807;81;21225;-60
2021/03/21 12:22:57;;;;;;;26.00;14.53;;;;;;;6.27;41.06;98445.25;1801033;78;21674;-62
2021/03/21 12:25:32;;;;;;;21.10;13.03;;;;;;;6.37;40.71;98451.84;1786441;80;21130;-61
2021/03/21 12:28:20;;;;;;;19.05;11.43;;;;;;;6.41;40.17;98454.50;1773535;80;21303;-62
2021/03/21 12:30:52;;;;;;;17.40;10.78;;;;;;;6.52;40.19;98444.44;1782727;80;21106;-62
2021/03/21 12:33:29;;;;;;;16.37;10.90;;;;;;;6.67;40.08;98431.91;1785099;80;21160;-60
2021/03/21 12:36:11;;;;;;;16.00;10.53;;;;;;;6.67;39.59;98440.88;1779751;80;21174;-61
2021/03/21 12:38:53;;;;;;;23.67;9.63;;;;;;;6.66;39.89;98450.67;1780614;80;21260;-62
2021/03/21 12:41:37;;;;;;;17.20;10.08;;;;;;;6.74;39.29;98436.31;1780888;80;21248;-61